sensor_id;sensor_type;location;lat;lon;timestamp;pressure;altitude;pressure_sealevel;temperature;humidity
75650;BME280;64245;51.282;22.494;2023-03-14T00:01:29;97966.19;;;5.86;70.62
75650;BME280;64245;51.282;22.494;2023-03-14T00:03:55;97956.69;;;5.74;71.78
75650;BME280;64245;51.282;22.494;2023-03-14T00:06:21;97956.00;;;5.72;71.48
75650;BME280;64245;51.282;22.494;2023-03-14T00:08:47;97966.91;;;5.88;71.34
75650;BME280;64245;51.282;22.494;2023-03-14T00:11:15;97963.09;;;5.81;71.16
75650;BME280;64245;51.282;22.494;2023-03-14T00:13:41;97955.66;;;5.95;70.45
75650;BME280;64245;51.282;22.494;2023-03-14T00:16:10;97967.19;;;5.95;70.29
75650;BME280;64245;51.282;22.494;2023-03-14T00:18:36;97967.25;;;6.03;70.07
75650;BME280;64245;51.282;22.494;2023-03-14T00:21:04;97961.97;;;5.94;69.84
75650;BME280;64245;51.282;22.494;2023-03-14T00:23:31;97957.47;;;5.94;70.12
75650;BME280;64245;51.282;22.494;2023-03-14T00:26:02;97966.47;;;5.93;70.59
75650;BME280;64245;51.282;22.494;2023-03-14T00:28:28;97955.50;;;5.86;70.04
75650;BME280;64245;51.282;22.494;2023-03-14T00:30:54;97943.97;;;5.86;70.32
75650;BME280;64245;51.282;22.494;2023-03-14T00:33:19;97936.78;;;5.96;70.04
75650;BME280;64245;51.282;22.494;2023-03-14T00:36:01;97941.03;;;5.89;70.68
75650;BME280;64245;51.282;22.494;2023-03-14T00:38:27;97939.53;;;5.77;70.12
75650;BME280;64245;51.282;22.494;2023-03-14T00:40:53;97931.81;;;5.74;70.97
75650;BME280;64245;51.282;22.494;2023-03-14T00:43:20;97945.59;;;5.69;71.45
75650;BME280;64245;51.282;22.494;2023-03-14T00:45:49;97937.72;;;5.68;71.83
75650;BME280;64245;51.282;22.494;2023-03-14T00:48:15;97936.34;;;5.64;71.47
75650;BME280;64245;51.282;22.494;2023-03-14T00:50:41;97925.91;;;5.70;71.00
75650;BME280;64245;51.282;22.494;2023-03-14T00:53:07;97910.97;;;5.77;71.20
75650;BME280;64245;51.282;22.494;2023-03-14T00:55:36;97899.50;;;5.67;70.15
75650;BME280;64245;51.282;22.494;2023-03-14T00:58:01;97880.97;;;5.83;69.87
75650;BME280;64245;51.282;22.494;2023-03-14T01:00:27;97894.19;;;5.95;69.88
75650;BME280;64245;51.282;22.494;2023-03-14T01:02:53;97890.97;;;5.91;69.21
75650;BME280;64245;51.282;22.494;2023-03-14T01:05:19;97872.81;;;5.95;68.36
75650;BME280;64245;51.282;22.494;2023-03-14T01:07:44;97884.38;;;6.13;68.14
75650;BME280;64245;51.282;22.494;2023-03-14T01:10:10;97882.44;;;6.05;68.50
75650;BME280;64245;51.282;22.494;2023-03-14T01:12:36;97865.84;;;6.02;67.84
75650;BME280;64245;51.282;22.494;2023-03-14T01:15:02;97869.44;;;5.93;69.87
75650;BME280;64245;51.282;22.494;2023-03-14T01:17:27;97888.78;;;6.04;67.87
75650;BME280;64245;51.282;22.494;2023-03-14T01:19:53;97858.22;;;5.89;68.92
75650;BME280;64245;51.282;22.494;2023-03-14T01:22:18;97851.75;;;5.82;69.21
75650;BME280;64245;51.282;22.494;2023-03-14T01:24:44;97853.13;;;5.86;68.68
75650;BME280;64245;51.282;22.494;2023-03-14T01:27:09;97865.31;;;6.16;67.65
75650;BME280;64245;51.282;22.494;2023-03-14T01:29:35;97856.16;;;6.01;67.70
75650;BME280;64245;51.282;22.494;2023-03-14T01:32:01;97842.88;;;5.91;67.92
75650;BME280;64245;51.282;22.494;2023-03-14T01:34:26;97845.63;;;5.99;68.70
75650;BME280;64245;51.282;22.494;2023-03-14T01:36:52;97837.44;;;6.01;67.60
75650;BME280;64245;51.282;22.494;2023-03-14T01:39:18;97839.59;;;5.97;67.62
75650;BME280;64245;51.282;22.494;2023-03-14T01:41:43;97840.47;;;5.88;69.23
75650;BME280;64245;51.282;22.494;2023-03-14T01:44:12;97849.06;;;5.92;67.63
75650;BME280;64245;51.282;22.494;2023-03-14T01:46:40;97842.88;;;5.91;68.48
75650;BME280;64245;51.282;22.494;2023-03-14T01:49:29;97857.53;;;6.05;67.37
75650;BME280;64245;51.282;22.494;2023-03-14T01:52:10;97853.41;;;5.93;67.80
75650;BME280;64245;51.282;22.494;2023-03-14T01:54:43;97843.44;;;5.85;68.32
75650;BME280;64245;51.282;22.494;2023-03-14T01:57:49;97839.53;;;6.07;66.46
75650;BME280;64245;51.282;22.494;2023-03-14T02:00:10;97841.13;;;5.72;69.93
75650;BME280;64245;51.282;22.494;2023-03-14T02:02:41;97834.59;;;5.84;68.68
75650;BME280;64245;51.282;22.494;2023-03-14T02:05:09;97814.78;;;5.77;68.21
75650;BME280;64245;51.282;22.494;2023-03-14T02:07:41;97831.22;;;5.82;68.21
75650;BME280;64245;51.282;22.494;2023-03-14T02:10:11;97841.91;;;5.82;69.20
75650;BME280;64245;51.282;22.494;2023-03-14T02:12:37;97841.66;;;6.03;67.30
75650;BME280;64245;51.282;22.494;2023-03-14T02:15:04;97817.16;;;5.90;67.48
75650;BME280;64245;51.282;22.494;2023-03-14T02:17:30;97824.03;;;5.83;68.03
75650;BME280;64245;51.282;22.494;2023-03-14T02:22:33;97816.56;;;5.86;68.42
75650;BME280;64245;51.282;22.494;2023-03-14T02:25:13;97810.13;;;5.89;68.43
75650;BME280;64245;51.282;22.494;2023-03-14T02:27:41;97804.19;;;6.13;66.64
75650;BME280;64245;51.282;22.494;2023-03-14T02:30:17;97800.03;;;6.01;66.81
75650;BME280;64245;51.282;22.494;2023-03-14T02:32:48;97815.41;;;6.34;65.77
75650;BME280;64245;51.282;22.494;2023-03-14T02:35:21;97796.00;;;6.32;65.91
75650;BME280;64245;51.282;22.494;2023-03-14T02:37:56;97798.75;;;6.22;66.39
75650;BME280;64245;51.282;22.494;2023-03-14T02:40:24;97786.44;;;6.30;65.91
75650;BME280;64245;51.282;22.494;2023-03-14T02:42:50;97786.75;;;6.27;66.86
75650;BME280;64245;51.282;22.494;2023-03-14T02:48:07;97786.75;;;6.27;66.79
75650;BME280;64245;51.282;22.494;2023-03-14T02:50:34;97750.41;;;6.16;65.94
75650;BME280;64245;51.282;22.494;2023-03-14T02:53:00;97757.66;;;6.23;67.05
75650;BME280;64245;51.282;22.494;2023-03-14T02:55:25;97777.56;;;6.47;65.49
75650;BME280;64245;51.282;22.494;2023-03-14T02:57:52;97797.50;;;6.52;66.08
75650;BME280;64245;51.282;22.494;2023-03-14T03:00:18;97771.69;;;6.43;66.29
75650;BME280;64245;51.282;22.494;2023-03-14T03:02:45;97787.25;;;6.48;65.74
75650;BME280;64245;51.282;22.494;2023-03-14T03:05:11;97775.31;;;6.60;65.25
75650;BME280;64245;51.282;22.494;2023-03-14T03:07:37;97783.47;;;6.58;65.32
75650;BME280;64245;51.282;22.494;2023-03-14T03:10:03;97774.41;;;6.51;65.56
75650;BME280;64245;51.282;22.494;2023-03-14T03:12:28;97782.75;;;6.48;66.22
75650;BME280;64245;51.282;22.494;2023-03-14T03:14:54;97783.38;;;6.42;67.08
75650;BME280;64245;51.282;22.494;2023-03-14T03:17:20;97763.75;;;6.34;66.97
75650;BME280;64245;51.282;22.494;2023-03-14T03:19:45;97762.97;;;6.41;66.57
75650;BME280;64245;51.282;22.494;2023-03-14T03:22:11;97776.44;;;6.57;66.29
75650;BME280;64245;51.282;22.494;2023-03-14T03:24:36;97783.06;;;6.45;68.60
75650;BME280;64245;51.282;22.494;2023-03-14T03:27:02;97773.84;;;6.66;65.56
75650;BME280;64245;51.282;22.494;2023-03-14T03:29:28;97742.47;;;6.50;66.49
75650;BME280;64245;51.282;22.494;2023-03-14T03:31:53;97755.28;;;6.64;66.54
75650;BME280;64245;51.282;22.494;2023-03-14T03:34:19;97740.84;;;6.57;66.20
75650;BME280;64245;51.282;22.494;2023-03-14T03:36:45;97750.66;;;6.48;67.54
75650;BME280;64245;51.282;22.494;2023-03-14T03:39:10;97717.97;;;6.11;68.35
75650;BME280;64245;51.282;22.494;2023-03-14T03:41:36;97721.69;;;6.18;67.90
75650;BME280;64245;51.282;22.494;2023-03-14T03:44:02;97694.69;;;6.03;68.35
75650;BME280;64245;51.282;22.494;2023-03-14T03:46:27;97706.75;;;6.07;68.89
75650;BME280;64245;51.282;22.494;2023-03-14T03:48:57;97685.97;;;6.01;68.09
75650;BME280;64245;51.282;22.494;2023-03-14T03:51:23;97703.22;;;6.07;67.81
75650;BME280;64245;51.282;22.494;2023-03-14T03:53:49;97685.78;;;6.20;66.55
75650;BME280;64245;51.282;22.494;2023-03-14T03:56:14;97687.09;;;6.16;67.16
75650;BME280;64245;51.282;22.494;2023-03-14T03:58:40;97676.00;;;6.29;66.29
75650;BME280;64245;51.282;22.494;2023-03-14T04:01:07;97692.34;;;6.26;66.02
75650;BME280;64245;51.282;22.494;2023-03-14T04:03:34;97689.00;;;6.24;66.13
75650;BME280;64245;51.282;22.494;2023-03-14T04:06:04;97681.97;;;6.49;65.44
75650;BME280;64245;51.282;22.494;2023-03-14T04:08:30;97663.47;;;6.30;65.30
75650;BME280;64245;51.282;22.494;2023-03-14T04:10:57;97686.50;;;6.56;64.94
75650;BME280;64245;51.282;22.494;2023-03-14T04:13:24;97692.28;;;6.44;66.96
75650;BME280;64245;51.282;22.494;2023-03-14T04:15:50;97678.81;;;6.28;65.94
75650;BME280;64245;51.282;22.494;2023-03-14T04:18:16;97680.81;;;6.51;64.99
75650;BME280;64245;51.282;22.494;2023-03-14T04:20:42;97685.13;;;6.44;65.21
75650;BME280;64245;51.282;22.494;2023-03-14T04:23:08;97678.50;;;6.31;65.98
75650;BME280;64245;51.282;22.494;2023-03-14T04:25:34;97663.84;;;6.09;65.84
75650;BME280;64245;51.282;22.494;2023-03-14T04:28:00;97664.81;;;6.08;67.19
75650;BME280;64245;51.282;22.494;2023-03-14T04:30:26;97678.22;;;5.90;67.79
75650;BME280;64245;51.282;22.494;2023-03-14T04:32:52;97665.84;;;5.89;67.46
75650;BME280;64245;51.282;22.494;2023-03-14T04:35:17;97650.56;;;5.99;66.77
75650;BME280;64245;51.282;22.494;2023-03-14T04:37:43;97651.94;;;5.85;67.56
75650;BME280;64245;51.282;22.494;2023-03-14T04:40:09;97659.38;;;5.92;66.91
75650;BME280;64245;51.282;22.494;2023-03-14T04:42:35;97659.56;;;5.80;67.70
75650;BME280;64245;51.282;22.494;2023-03-14T04:45:01;97669.56;;;5.78;66.64
75650;BME280;64245;51.282;22.494;2023-03-14T04:47:27;97658.03;;;5.78;67.16
75650;BME280;64245;51.282;22.494;2023-03-14T04:49:53;97655.47;;;5.68;66.87
75650;BME280;64245;51.282;22.494;2023-03-14T04:52:19;97643.19;;;5.58;69.12
75650;BME280;64245;51.282;22.494;2023-03-14T04:54:44;97661.25;;;5.81;67.87
75650;BME280;64245;51.282;22.494;2023-03-14T04:57:10;97651.84;;;5.77;66.91
75650;BME280;64245;51.282;22.494;2023-03-14T04:59:35;97650.34;;;5.93;65.53
75650;BME280;64245;51.282;22.494;2023-03-14T05:02:01;97644.09;;;5.66;68.10
75650;BME280;64245;51.282;22.494;2023-03-14T05:04:26;97648.75;;;5.64;67.34
75650;BME280;64245;51.282;22.494;2023-03-14T05:06:52;97629.75;;;5.67;66.42
75650;BME280;64245;51.282;22.494;2023-03-14T05:09:18;97641.16;;;5.77;66.45
75650;BME280;64245;51.282;22.494;2023-03-14T05:11:43;97644.53;;;5.79;65.86
75650;BME280;64245;51.282;22.494;2023-03-14T05:14:09;97615.94;;;5.89;64.79
75650;BME280;64245;51.282;22.494;2023-03-14T05:16:35;97613.66;;;5.77;66.40
75650;BME280;64245;51.282;22.494;2023-03-14T05:19:00;97620.19;;;5.82;66.13
75650;BME280;64245;51.282;22.494;2023-03-14T05:21:27;97614.34;;;6.05;64.46
75650;BME280;64245;51.282;22.494;2023-03-14T05:23:52;97618.63;;;6.15;63.67
75650;BME280;64245;51.282;22.494;2023-03-14T05:26:18;97607.81;;;6.25;63.95
75650;BME280;64245;51.282;22.494;2023-03-14T05:28:44;97608.00;;;6.32;63.32
75650;BME280;64245;51.282;22.494;2023-03-14T05:31:10;97596.41;;;6.15;63.78
75650;BME280;64245;51.282;22.494;2023-03-14T05:33:35;97587.56;;;6.22;63.67
75650;BME280;64245;51.282;22.494;2023-03-14T05:36:01;97598.50;;;6.37;62.14
75650;BME280;64245;51.282;22.494;2023-03-14T05:38:27;97588.84;;;6.44;62.25
75650;BME280;64245;51.282;22.494;2023-03-14T05:40:53;97576.72;;;6.24;63.77
75650;BME280;64245;51.282;22.494;2023-03-14T05:43:18;97590.47;;;6.37;63.30
75650;BME280;64245;51.282;22.494;2023-03-14T05:45:44;97570.75;;;6.30;62.87
75650;BME280;64245;51.282;22.494;2023-03-14T05:48:09;97574.47;;;6.45;62.53
75650;BME280;64245;51.282;22.494;2023-03-14T05:50:36;97592.16;;;6.72;62.19
75650;BME280;64245;51.282;22.494;2023-03-14T05:53:01;97579.94;;;6.78;60.62
75650;BME280;64245;51.282;22.494;2023-03-14T05:55:27;97589.97;;;6.76;62.22
75650;BME280;64245;51.282;22.494;2023-03-14T05:57:53;97583.25;;;6.64;62.88
75650;BME280;64245;51.282;22.494;2023-03-14T06:00:19;97566.34;;;6.63;61.80
75650;BME280;64245;51.282;22.494;2023-03-14T06:02:45;97562.88;;;6.79;61.92
75650;BME280;64245;51.282;22.494;2023-03-14T06:05:11;97560.59;;;6.92;60.23
75650;BME280;64245;51.282;22.494;2023-03-14T06:07:37;97573.81;;;7.02;59.67
75650;BME280;64245;51.282;22.494;2023-03-14T06:10:03;97578.97;;;6.95;60.83
75650;BME280;64245;51.282;22.494;2023-03-14T06:12:29;97587.03;;;7.03;59.69
75650;BME280;64245;51.282;22.494;2023-03-14T06:14:55;97583.38;;;7.04;60.17
75650;BME280;64245;51.282;22.494;2023-03-14T06:17:20;97573.50;;;7.13;59.24
75650;BME280;64245;51.282;22.494;2023-03-14T06:19:46;97592.91;;;7.15;59.71
75650;BME280;64245;51.282;22.494;2023-03-14T06:22:12;97583.72;;;7.17;60.21
75650;BME280;64245;51.282;22.494;2023-03-14T06:24:37;97579.72;;;7.21;59.33
75650;BME280;64245;51.282;22.494;2023-03-14T06:27:03;97576.88;;;7.31;58.71
75650;BME280;64245;51.282;22.494;2023-03-14T06:29:29;97560.09;;;7.13;59.89
75650;BME280;64245;51.282;22.494;2023-03-14T06:31:55;97566.66;;;7.35;57.78
75650;BME280;64245;51.282;22.494;2023-03-14T06:34:21;97561.00;;;7.46;58.00
75650;BME280;64245;51.282;22.494;2023-03-14T06:36:46;97561.00;;;7.46;58.01
75650;BME280;64245;51.282;22.494;2023-03-14T06:39:12;97586.09;;;7.61;57.87
75650;BME280;64245;51.282;22.494;2023-03-14T06:41:38;97560.81;;;7.63;58.53
75650;BME280;64245;51.282;22.494;2023-03-14T06:44:04;97532.84;;;7.66;57.14
75650;BME280;64245;51.282;22.494;2023-03-14T06:46:30;97546.91;;;7.76;57.48
75650;BME280;64245;51.282;22.494;2023-03-14T06:48:56;97534.84;;;7.80;57.96
75650;BME280;64245;51.282;22.494;2023-03-14T06:51:21;97516.06;;;7.88;57.43
75650;BME280;64245;51.282;22.494;2023-03-14T06:53:47;97504.50;;;7.88;58.44
75650;BME280;64245;51.282;22.494;2023-03-14T06:56:13;97504.28;;;8.06;57.06
75650;BME280;64245;51.282;22.494;2023-03-14T06:58:39;97492.72;;;8.05;57.33
75650;BME280;64245;51.282;22.494;2023-03-14T07:01:04;97503.25;;;8.15;57.99
75650;BME280;64245;51.282;22.494;2023-03-14T07:03:30;97498.22;;;8.20;57.30
75650;BME280;64245;51.282;22.494;2023-03-14T07:05:56;97515.44;;;8.34;58.92
75650;BME280;64245;51.282;22.494;2023-03-14T07:08:21;97507.03;;;8.45;56.80
75650;BME280;64245;51.282;22.494;2023-03-14T07:10:47;97511.09;;;8.32;57.79
75650;BME280;64245;51.282;22.494;2023-03-14T07:13:13;97493.47;;;8.38;56.43
75650;BME280;64245;51.282;22.494;2023-03-14T07:15:38;97485.00;;;8.49;57.33
75650;BME280;64245;51.282;22.494;2023-03-14T07:18:04;97483.44;;;8.63;56.04
75650;BME280;64245;51.282;22.494;2023-03-14T07:20:29;97480.00;;;8.77;56.39
75650;BME280;64245;51.282;22.494;2023-03-14T07:22:58;97485.22;;;9.02;56.03
75650;BME280;64245;51.282;22.494;2023-03-14T07:25:25;97485.13;;;9.10;55.74
75650;BME280;64245;51.282;22.494;2023-03-14T07:27:51;97466.38;;;9.24;55.55
75650;BME280;64245;51.282;22.494;2023-03-14T07:30:16;97475.09;;;9.26;55.84
75650;BME280;64245;51.282;22.494;2023-03-14T07:32:42;97472.91;;;9.45;54.78
75650;BME280;64245;51.282;22.494;2023-03-14T07:35:08;97463.75;;;9.39;55.92
75650;BME280;64245;51.282;22.494;2023-03-14T07:37:34;97475.00;;;9.57;54.72
75650;BME280;64245;51.282;22.494;2023-03-14T07:39:59;97462.66;;;9.63;55.08
75650;BME280;64245;51.282;22.494;2023-03-14T07:42:26;97472.69;;;9.84;55.26
75650;BME280;64245;51.282;22.494;2023-03-14T07:44:51;97466.03;;;10.09;53.89
75650;BME280;64245;51.282;22.494;2023-03-14T07:47:17;97482.56;;;10.35;53.28
75650;BME280;64245;51.282;22.494;2023-03-14T07:49:42;97466.50;;;10.42;53.12
75650;BME280;64245;51.282;22.494;2023-03-14T07:52:08;97456.13;;;10.39;53.64
75650;BME280;64245;51.282;22.494;2023-03-14T07:54:33;97479.63;;;10.66;53.01
75650;BME280;64245;51.282;22.494;2023-03-14T07:57:00;97464.63;;;10.57;53.84
75650;BME280;64245;51.282;22.494;2023-03-14T07:59:26;97461.66;;;10.52;53.13
75650;BME280;64245;51.282;22.494;2023-03-14T08:01:52;97456.00;;;10.47;54.20
75650;BME280;64245;51.282;22.494;2023-03-14T08:04:18;97447.13;;;10.68;53.68
75650;BME280;64245;51.282;22.494;2023-03-14T08:06:44;97464.06;;;10.83;53.73
75650;BME280;64245;51.282;22.494;2023-03-14T08:09:09;97453.88;;;11.00;52.35
75650;BME280;64245;51.282;22.494;2023-03-14T08:11:35;97447.25;;;10.96;51.77
75650;BME280;64245;51.282;22.494;2023-03-14T08:14:00;97450.34;;;10.99;52.62
75650;BME280;64245;51.282;22.494;2023-03-14T08:16:26;97454.16;;;11.05;52.84
75650;BME280;64245;51.282;22.494;2023-03-14T08:18:52;97441.22;;;11.15;52.71
75650;BME280;64245;51.282;22.494;2023-03-14T08:21:17;97427.97;;;11.20;52.47
75650;BME280;64245;51.282;22.494;2023-03-14T08:23:43;97420.22;;;11.11;53.68
75650;BME280;64245;51.282;22.494;2023-03-14T08:26:09;97419.25;;;11.18;52.94
75650;BME280;64245;51.282;22.494;2023-03-14T08:28:34;97432.88;;;11.10;54.40
75650;BME280;64245;51.282;22.494;2023-03-14T08:31:00;97426.25;;;11.13;53.61
75650;BME280;64245;51.282;22.494;2023-03-14T08:33:27;97437.72;;;11.21;53.88
75650;BME280;64245;51.282;22.494;2023-03-14T08:35:58;97427.75;;;11.15;53.62
75650;BME280;64245;51.282;22.494;2023-03-14T08:38:24;97446.19;;;11.18;52.99
75650;BME280;64245;51.282;22.494;2023-03-14T08:40:58;97436.84;;;11.14;53.16
75650;BME280;64245;51.282;22.494;2023-03-14T08:43:24;97448.88;;;11.18;53.07
75650;BME280;64245;51.282;22.494;2023-03-14T08:45:51;97424.59;;;11.12;54.17
75650;BME280;64245;51.282;22.494;2023-03-14T08:48:17;97429.00;;;10.98;54.95
75650;BME280;64245;51.282;22.494;2023-03-14T08:50:42;97438.44;;;11.08;53.70
75650;BME280;64245;51.282;22.494;2023-03-14T08:53:09;97437.47;;;11.16;54.19
75650;BME280;64245;51.282;22.494;2023-03-14T08:55:35;97444.50;;;11.38;53.87
75650;BME280;64245;51.282;22.494;2023-03-14T08:58:01;97435.16;;;11.62;53.12
75650;BME280;64245;51.282;22.494;2023-03-14T09:00:26;97430.19;;;11.66;52.53
75650;BME280;64245;51.282;22.494;2023-03-14T09:02:52;97428.16;;;11.68;52.49
75650;BME280;64245;51.282;22.494;2023-03-14T09:05:18;97424.94;;;11.58;53.05
75650;BME280;64245;51.282;22.494;2023-03-14T09:07:43;97428.72;;;11.63;52.19
75650;BME280;64245;51.282;22.494;2023-03-14T09:10:10;97439.69;;;11.83;51.47
75650;BME280;64245;51.282;22.494;2023-03-14T09:12:36;97429.59;;;11.98;52.80
75650;BME280;64245;51.282;22.494;2023-03-14T09:15:03;97425.59;;;12.22;51.01
75650;BME280;64245;51.282;22.494;2023-03-14T09:17:28;97424.59;;;12.30;50.26
75650;BME280;64245;51.282;22.494;2023-03-14T09:19:54;97420.84;;;12.31;50.83
75650;BME280;64245;51.282;22.494;2023-03-14T09:22:20;97429.88;;;12.58;50.68
75650;BME280;64245;51.282;22.494;2023-03-14T09:24:46;97420.94;;;12.57;50.58
75650;BME280;64245;51.282;22.494;2023-03-14T09:27:12;97427.63;;;12.68;49.96
75650;BME280;64245;51.282;22.494;2023-03-14T09:29:38;97431.59;;;12.78;49.96
75650;BME280;64245;51.282;22.494;2023-03-14T09:32:03;97394.00;;;12.84;50.58
75650;BME280;64245;51.282;22.494;2023-03-14T09:34:30;97434.78;;;13.02;49.33
75650;BME280;64245;51.282;22.494;2023-03-14T09:36:55;97413.53;;;12.86;49.73
75650;BME280;64245;51.282;22.494;2023-03-14T09:39:21;97410.03;;;13.05;49.42
75650;BME280;64245;51.282;22.494;2023-03-14T09:41:48;97421.88;;;13.10;49.02
75650;BME280;64245;51.282;22.494;2023-03-14T09:44:32;97423.16;;;13.08;49.10
75650;BME280;64245;51.282;22.494;2023-03-14T09:47:03;97418.78;;;13.07;50.08
75650;BME280;64245;51.282;22.494;2023-03-14T09:49:33;97411.50;;;13.07;48.88
75650;BME280;64245;51.282;22.494;2023-03-14T09:52:02;97410.66;;;13.13;49.66
75650;BME280;64245;51.282;22.494;2023-03-14T09:56:58;97406.97;;;13.34;50.06
75650;BME280;64245;51.282;22.494;2023-03-14T09:59:24;97409.88;;;13.46;47.95
75650;BME280;64245;51.282;22.494;2023-03-14T10:01:52;97411.53;;;13.54;48.75
75650;BME280;64245;51.282;22.494;2023-03-14T10:04:22;97406.34;;;13.59;47.36
75650;BME280;64245;51.282;22.494;2023-03-14T10:06:50;97395.09;;;13.55;48.47
75650;BME280;64245;51.282;22.494;2023-03-14T10:09:20;97398.44;;;13.57;47.48
75650;BME280;64245;51.282;22.494;2023-03-14T10:11:57;97393.63;;;13.53;47.91
75650;BME280;64245;51.282;22.494;2023-03-14T10:14:36;97415.06;;;13.61;47.84
75650;BME280;64245;51.282;22.494;2023-03-14T10:17:11;97413.00;;;13.63;47.20
75650;BME280;64245;51.282;22.494;2023-03-14T10:19:59;97406.75;;;13.62;47.80
75650;BME280;64245;51.282;22.494;2023-03-14T10:22:29;97401.53;;;13.74;49.14
75650;BME280;64245;51.282;22.494;2023-03-14T10:24:57;97410.22;;;14.02;47.50
75650;BME280;64245;51.282;22.494;2023-03-14T10:27:34;97391.91;;;13.91;48.56
75650;BME280;64245;51.282;22.494;2023-03-14T10:30:01;97401.59;;;14.25;47.71
75650;BME280;64245;51.282;22.494;2023-03-14T10:32:32;97406.53;;;14.48;47.32
75650;BME280;64245;51.282;22.494;2023-03-14T10:35:17;97405.91;;;14.39;47.28
75650;BME280;64245;51.282;22.494;2023-03-14T10:37:57;97392.78;;;14.49;47.43
75650;BME280;64245;51.282;22.494;2023-03-14T10:40:27;97393.72;;;14.68;46.30
75650;BME280;64245;51.282;22.494;2023-03-14T10:42:54;97394.03;;;15.16;47.21
75650;BME280;64245;51.282;22.494;2023-03-14T10:45:38;97390.22;;;14.99;45.84
75650;BME280;64245;51.282;22.494;2023-03-14T10:53:44;97381.66;;;15.77;43.14
75650;BME280;64245;51.282;22.494;2023-03-14T10:56:17;97364.53;;;15.27;44.26
75650;BME280;64245;51.282;22.494;2023-03-14T10:58:49;97366.03;;;15.23;45.84
75650;BME280;64245;51.282;22.494;2023-03-14T11:09:42;97357.56;;;15.12;47.09
75650;BME280;64245;51.282;22.494;2023-03-14T11:14:54;97359.47;;;15.80;44.21
75650;BME280;64245;51.282;22.494;2023-03-14T11:17:25;97355.19;;;16.75;42.38
75650;BME280;64245;51.282;22.494;2023-03-14T11:23:01;97362.28;;;17.18;41.99
75650;BME280;64245;51.282;22.494;2023-03-14T11:25:36;97351.34;;;17.48;40.74
75650;BME280;64245;51.282;22.494;2023-03-14T11:28:18;97364.59;;;17.44;41.71
75650;BME280;64245;51.282;22.494;2023-03-14T11:30:53;97351.47;;;16.88;40.91
75650;BME280;64245;51.282;22.494;2023-03-14T11:33:39;97347.84;;;17.17;40.37
75650;BME280;64245;51.282;22.494;2023-03-14T11:36:20;97343.31;;;17.00;40.34
75650;BME280;64245;51.282;22.494;2023-03-14T11:38:52;97328.13;;;17.22;42.44
75650;BME280;64245;51.282;22.494;2023-03-14T11:41:25;97340.88;;;18.15;40.21
75650;BME280;64245;51.282;22.494;2023-03-14T11:43:54;97339.63;;;17.82;41.07
75650;BME280;64245;51.282;22.494;2023-03-14T11:46:28;97344.34;;;17.99;39.90
75650;BME280;64245;51.282;22.494;2023-03-14T11:49:03;97341.13;;;18.13;42.42
75650;BME280;64245;51.282;22.494;2023-03-14T11:51:36;97337.47;;;17.38;40.63
75650;BME280;64245;51.282;22.494;2023-03-14T11:57:00;97297.88;;;16.77;42.38
75650;BME280;64245;51.282;22.494;2023-03-14T11:59:47;97328.25;;;16.26;43.50
75650;BME280;64245;51.282;22.494;2023-03-14T12:02:33;97317.53;;;16.61;42.26
75650;BME280;64245;51.282;22.494;2023-03-14T12:10:47;97322.66;;;17.22;42.22
75650;BME280;64245;51.282;22.494;2023-03-14T12:13:15;97325.63;;;17.09;41.90
75650;BME280;64245;51.282;22.494;2023-03-14T12:15:46;97336.91;;;16.82;41.50
75650;BME280;64245;51.282;22.494;2023-03-14T12:18:37;97335.56;;;16.25;43.48
75650;BME280;64245;51.282;22.494;2023-03-14T12:21:06;97340.53;;;16.76;42.20
75650;BME280;64245;51.282;22.494;2023-03-14T12:23:52;97334.19;;;16.82;43.08
75650;BME280;64245;51.282;22.494;2023-03-14T12:26:24;97341.63;;;16.87;42.97
75650;BME280;64245;51.282;22.494;2023-03-14T12:28:52;97331.13;;;16.90;42.29
75650;BME280;64245;51.282;22.494;2023-03-14T12:31:42;97320.31;;;17.25;41.82
75650;BME280;64245;51.282;22.494;2023-03-14T12:50:35;97320.50;;;15.93;45.55
75650;BME280;64245;51.282;22.494;2023-03-14T12:53:20;97320.72;;;16.09;44.09
75650;BME280;64245;51.282;22.494;2023-03-14T12:56:11;97319.13;;;16.20;44.54
75650;BME280;64245;51.282;22.494;2023-03-14T13:01:28;97320.75;;;15.48;45.33
75650;BME280;64245;51.282;22.494;2023-03-14T13:03:57;97324.56;;;15.40;46.34
75650;BME280;64245;51.282;22.494;2023-03-14T13:12:02;97305.59;;;14.91;47.30
75650;BME280;64245;51.282;22.494;2023-03-14T13:14:30;97333.22;;;15.06;47.28
75650;BME280;64245;51.282;22.494;2023-03-14T13:16:59;97314.78;;;14.90;48.82
75650;BME280;64245;51.282;22.494;2023-03-14T13:19:28;97321.81;;;14.66;47.35
75650;BME280;64245;51.282;22.494;2023-03-14T13:22:04;97340.44;;;14.56;48.80
75650;BME280;64245;51.282;22.494;2023-03-14T13:24:33;97337.75;;;14.49;48.55
75650;BME280;64245;51.282;22.494;2023-03-14T13:26:59;97334.41;;;14.54;48.67
75650;BME280;64245;51.282;22.494;2023-03-14T13:29:28;97322.75;;;14.53;48.64
75650;BME280;64245;51.282;22.494;2023-03-14T13:31:59;97330.25;;;14.51;50.23
75650;BME280;64245;51.282;22.494;2023-03-14T13:34:30;97339.63;;;14.55;50.19
75650;BME280;64245;51.282;22.494;2023-03-14T13:36:55;97327.56;;;14.44;49.21
75650;BME280;64245;51.282;22.494;2023-03-14T13:39:24;97341.13;;;14.44;49.49
75650;BME280;64245;51.282;22.494;2023-03-14T13:41:55;97319.91;;;14.41;51.26
75650;BME280;64245;51.282;22.494;2023-03-14T13:44:27;97322.88;;;14.65;49.35
75650;BME280;64245;51.282;22.494;2023-03-14T13:47:03;97332.41;;;14.74;49.01
75650;BME280;64245;51.282;22.494;2023-03-14T13:49:32;97326.88;;;14.87;48.00
75650;BME280;64245;51.282;22.494;2023-03-14T13:52:01;97321.88;;;14.59;50.33
75650;BME280;64245;51.282;22.494;2023-03-14T13:54:27;97331.94;;;14.45;50.09
75650;BME280;64245;51.282;22.494;2023-03-14T13:57:01;97336.88;;;14.10;49.41
75650;BME280;64245;51.282;22.494;2023-03-14T13:59:29;97336.59;;;14.25;49.59
75650;BME280;64245;51.282;22.494;2023-03-14T14:01:57;97343.25;;;14.29;49.94